Time;durP1;ratioP1;P1;durP2;ratioP2;P2;SDS_P1;SDS_P2;PMS_P1;PMS_P2;Temp;Humidity;BMP_temperature;BMP_pressure;BME280_temperature;BME280_humidity;BME280_pressure;Samples;Min_cycle;Max_cycle;Signal;HPM_P1;HPM_P2
2022/09/27 00:01:24;;;;;;;104.45;27.55;;;;;;;12.21;100.00;97575.34;4298154;33;20092;-68
2022/09/27 00:03:57;;;;;;;168.50;28.35;;;;;;;12.82;100.00;97578.06;4294538;33;20063;-69
2022/09/27 00:06:26;;;;;;;275.50;26.92;;;;;;;12.36;100.00;97582.38;4293866;33;20059;-69
2022/09/27 00:08:54;;;;;;;181.20;28.30;;;;;;;12.23;100.00;97589.34;4312047;33;20044;-69
2022/09/27 00:11:32;;;;;;;227.82;29.17;;;;;;;12.11;100.00;97597.09;4323478;33;20080;-68
2022/09/27 00:13:59;;;;;;;261.48;30.33;;;;;;;12.77;100.00;97586.25;4350131;32;20054;-69
2022/09/27 00:16:31;;;;;;;262.25;29.12;;;;;;;12.75;100.00;97583.03;4351888;32;20024;-72
2022/09/27 00:19:02;;;;;;;224.10;27.58;;;;;;;12.63;100.00;97533.03;4323978;33;20086;-69
2022/09/27 00:21:29;;;;;;;;;;;;;;;12.50;100.00;97564.31;4351678;32;20043;-69
2022/09/27 00:23:57;;;;;;;255.70;27.10;;;;;;;12.49;100.00;97580.81;4353145;32;19931;-69
2022/09/27 00:26:24;;;;;;;201.55;26.95;;;;;;;12.63;100.00;97570.81;4361421;32;20043;-70
2022/09/27 00:28:51;;;;;;;187.23;30.52;;;;;;;12.85;100.00;97561.25;4367181;32;20074;-69
2022/09/27 00:31:28;;;;;;;257.17;28.92;;;;;;;12.68;100.00;97532.13;4367321;32;20036;-70
2022/09/27 00:33:57;;;;;;;166.93;27.25;;;;;;;12.91;100.00;97565.44;4368137;32;20442;-69
2022/09/27 00:36:24;;;;;;;155.32;26.17;;;;;;;11.90;100.00;97530.00;4367094;32;20027;-72
2022/09/27 00:38:51;;;;;;;113.22;26.67;;;;;;;11.37;100.00;97465.56;4378541;32;20070;-70
2022/09/27 00:41:26;;;;;;;173.93;27.05;;;;;;;12.01;100.00;97521.75;4377225;32;20068;-69
2022/09/27 00:43:58;;;;;;;76.07;24.73;;;;;;;12.39;100.00;97567.50;4367921;32;20035;-69
2022/09/27 00:46:32;;;;;;;149.00;26.55;;;;;;;11.82;100.00;97568.38;4364878;32;20171;-69
2022/09/27 00:49:07;;;;;;;110.22;26.20;;;;;;;11.68;100.00;97521.69;4366842;32;20040;-69
2022/09/27 00:51:37;;;;;;;82.62;23.95;;;;;;;11.97;100.00;97553.91;4376479;32;20077;-69
2022/09/27 00:54:05;;;;;;;95.82;24.87;;;;;;;12.37;100.00;97519.22;4338986;33;20056;-72
2022/09/27 00:56:32;;;;;;;157.40;24.50;;;;;;;12.43;100.00;97518.03;4337238;33;20040;-69
2022/09/27 00:59:08;;;;;;;227.73;24.80;;;;;;;12.20;100.00;97502.81;4337037;33;20032;-69
2022/09/27 01:01:35;;;;;;;213.57;23.73;;;;;;;12.29;100.00;97541.50;4337337;33;20032;-68
2022/09/27 01:04:11;;;;;;;147.80;21.15;;;;;;;11.96;100.00;97480.25;4331514;33;20097;-73
2022/09/27 01:06:38;;;;;;;193.82;22.50;;;;;;;11.95;100.00;97513.75;4338084;33;20044;-68
2022/09/27 01:09:08;;;;;;;175.25;22.83;;;;;;;11.96;100.00;97563.09;4310800;33;20402;-69
2022/09/27 01:11:43;;;;;;;230.77;24.33;;;;;;;12.29;100.00;97545.00;4322848;33;20404;-69
2022/09/27 01:14:29;;;;;;;168.57;24.27;;;;;;;12.39;100.00;97541.31;4319722;33;20032;-73
2022/09/27 01:17:25;;;;;;;171.45;22.77;;;;;;;12.46;100.00;97543.59;4322960;33;20028;-69
2022/09/27 01:20:19;;;;;;;200.50;22.50;;;;;;;12.53;100.00;97544.81;4349945;32;20435;-69
2022/09/27 01:23:04;;;;;;;179.63;26.77;;;;;;;12.88;100.00;97539.84;4365205;32;20065;-69
2022/09/27 01:25:48;;;;;;;278.15;29.08;;;;;;;11.74;100.00;97480.91;4378201;32;20086;-69
2022/09/27 01:28:25;;;;;;;177.40;26.92;;;;;;;11.88;100.00;97529.47;4385557;32;20039;-69
2022/09/27 01:31:01;;;;;;;273.85;30.40;;;;;;;12.08;100.00;97512.19;4382848;32;20204;-70
2022/09/27 01:33:59;;;;;;;239.82;28.87;;;;;;;12.50;100.00;97518.41;4383845;32;20049;-69
2022/09/27 01:36:36;;;;;;;236.27;27.75;;;;;;;12.63;100.00;97514.13;4367513;32;20196;-70
2022/09/27 01:39:43;;;;;;;130.65;26.30;;;;;;;12.88;100.00;97506.63;4371101;32;20362;-69
2022/09/27 01:42:29;;;;;;;115.45;24.77;;;;;;;12.85;100.00;97504.53;4388941;32;20375;-69
2022/09/27 01:45:22;;;;;;;224.35;29.75;;;;;;;12.69;100.00;97456.22;4399582;32;20109;-69
2022/09/27 01:47:55;;;;;;;196.35;26.33;;;;;;;12.30;100.00;97449.44;4399330;32;20039;-69
2022/09/27 01:50:32;;;;;;;175.50;26.45;;;;;;;12.88;100.00;97501.22;4387636;32;20038;-69
2022/09/27 01:53:05;;;;;;;126.97;26.83;;;;;;;12.45;100.00;97436.75;4387153;32;20405;-71
2022/09/27 01:55:37;;;;;;;175.90;26.17;;;;;;;12.74;100.00;97484.22;4399534;32;20057;-70
2022/09/27 01:58:16;;;;;;;189.85;28.87;;;;;;;12.40;100.00;97483.53;4400316;32;20387;-69
2022/09/27 02:00:48;;;;;;;152.05;26.15;;;;;;;12.49;100.00;97445.84;4365775;32;20098;-69
2022/09/27 02:03:27;;;;;;;189.73;29.23;;;;;;;12.59;100.00;97472.63;4368464;32;20057;-69
2022/09/27 02:06:02;;;;;;;152.93;28.33;;;;;;;12.57;100.00;97458.62;4363584;32;20065;-69
2022/09/27 02:08:55;;;;;;;145.85;28.10;;;;;;;12.43;100.00;97436.22;4386058;32;20039;-69
2022/09/27 02:11:21;;;;;;;61.13;25.85;;;;;;;12.93;100.00;97476.78;4374307;32;20193;-69
2022/09/27 02:13:59;;;;;;;110.10;26.95;;;;;;;12.68;100.00;97422.22;4381698;32;20063;-72
2022/09/27 02:16:33;;;;;;;101.75;26.08;;;;;;;12.48;100.00;97476.66;4384468;32;20031;-69
2022/09/27 02:19:03;;;;;;;118.93;27.52;;;;;;;12.65;100.00;97466.03;4384255;32;20171;-69
2022/09/27 02:21:58;;;;;;;106.05;25.35;;;;;;;12.08;100.00;97430.44;4382752;32;20463;-72
2022/09/27 02:24:52;;;;;;;126.85;27.30;;;;;;;12.34;100.00;97474.72;4384506;32;20136;-70
2022/09/27 02:27:31;;;;;;;65.37;25.88;;;;;;;12.38;100.00;97449.84;4384782;32;20044;-69
2022/09/27 02:30:04;;;;;;;101.35;27.65;;;;;;;12.92;100.00;97458.97;4383706;32;20069;-69
2022/09/27 02:32:36;;;;;;;130.63;29.02;;;;;;;12.56;100.00;97413.03;4381363;32;20031;-70
2022/09/27 02:35:10;;;;;;;64.47;26.00;;;;;;;12.30;100.00;97406.28;4389762;32;20055;-69
2022/09/27 02:37:37;;;;;;;72.20;24.12;;;;;;;12.19;100.00;97415.66;4348422;32;20038;-69
2022/09/27 02:40:04;;;;;;;83.55;25.65;;;;;;;12.54;100.00;97448.44;4353336;32;20087;-70
2022/09/27 02:42:37;;;;;;;76.20;25.05;;;;;;;12.02;100.00;97453.22;4339779;33;20048;-69
2022/09/27 02:45:05;;;;;;;68.35;23.55;;;;;;;11.82;100.00;97418.19;4339241;33;20036;-69
2022/09/27 02:47:46;;;;;;;93.22;25.40;;;;;;;12.28;100.00;97450.84;4338267;33;20100;-69
2022/09/27 02:50:26;;;;;;;61.70;24.65;;;;;;;12.58;100.00;97448.63;4337816;33;20054;-69
2022/09/27 02:53:00;;;;;;;65.03;25.48;;;;;;;12.57;100.00;97395.72;4338669;33;20028;-69
2022/09/27 02:56:02;;;;;;;82.82;24.92;;;;;;;12.39;100.00;97437.94;4335170;32;20158;-72
2022/09/27 02:58:52;;;;;;;52.62;23.73;;;;;;;12.31;100.00;97440.22;4335936;33;20470;-69
2022/09/27 03:01:31;;;;;;;71.47;25.10;;;;;;;12.46;100.00;97430.22;4344452;32;20035;-69
2022/09/27 03:04:03;;;;;;;57.13;27.40;;;;;;;12.23;100.00;97432.84;4354181;32;20426;-69
2022/09/27 03:06:32;;;;;;;63.75;24.85;;;;;;;12.06;100.00;97441.53;4353997;32;20058;-69
2022/09/27 03:09:04;;;;;;;62.03;24.27;;;;;;;11.83;100.00;97435.16;4371701;32;20039;-69
2022/09/27 03:11:32;;;;;;;54.47;23.52;;;;;;;12.15;100.00;97425.44;4383559;32;20047;-69
2022/09/27 03:13:58;;;;;;;60.50;26.83;;;;;;;11.88;100.00;97426.97;4404041;32;20030;-69
2022/09/27 03:16:25;;;;;;;80.00;27.52;;;;;;;11.97;100.00;97421.75;4413490;32;20053;-69
2022/09/27 03:18:52;;;;;;;94.87;28.58;;;;;;;11.49;100.00;97382.38;4413466;32;20072;-72
2022/09/27 03:21:22;;;;;;;69.37;27.62;;;;;;;11.65;100.00;97417.97;4424969;32;20424;-69
2022/09/27 03:23:49;;;;;;;107.72;28.27;;;;;;;11.67;100.00;97421.16;4431748;32;20060;-70
2022/09/27 03:26:16;;;;;;;61.22;26.27;;;;;;;11.40;100.00;97421.88;4416134;32;20050;-69
2022/09/27 03:28:43;;;;;;;104.40;26.77;;;;;;;11.31;100.00;97385.91;4416574;32;20039;-69
2022/09/27 03:31:09;;;;;;;147.70;27.48;;;;;;;11.71;100.00;97394.37;4414076;32;20060;-69
2022/09/27 03:33:41;;;;;;;;;;;;;;;11.18;100.00;97390.94;4432030;32;20046;-69
2022/09/27 03:36:07;;;;;;;63.17;24.33;;;;;;;11.50;100.00;97421.69;4399168;32;19960;-69
2022/09/27 03:38:33;;;;;;;58.63;24.58;;;;;;;11.74;100.00;97391.09;4398665;32;20027;-69
2022/09/27 03:41:00;;;;;;;77.90;24.52;;;;;;;11.45;100.00;97349.84;4388984;32;20086;-69
2022/09/27 03:43:33;;;;;;;88.25;26.90;;;;;;;11.40;100.00;97367.97;4398754;32;20034;-69
2022/09/27 03:46:01;;;;;;;125.18;26.25;;;;;;;11.57;100.00;97405.94;4391606;32;20435;-71
2022/09/27 03:48:29;;;;;;;53.63;22.80;;;;;;;11.37;100.00;97396.31;4394876;32;20061;-70
2022/09/27 03:50:56;;;;;;;51.90;20.98;;;;;;;11.26;100.00;97406.47;4381533;32;20028;-70
2022/09/27 03:53:23;;;;;;;59.53;23.25;;;;;;;11.26;100.00;97406.47;4390380;32;20068;-69
2022/09/27 03:55:49;;;;;;;54.70;21.42;;;;;;;11.16;100.00;97395.03;4398460;32;20031;-69
2022/09/27 03:58:16;;;;;;;93.85;21.50;;;;;;;10.94;100.00;97398.34;4398747;32;20043;-70
2022/09/27 04:00:45;;;;;;;53.15;21.23;;;;;;;11.50;100.00;97396.66;4396511;32;20486;-73
2022/09/27 04:03:12;;;;;;;47.17;19.40;;;;;;;11.51;100.00;97315.50;4398879;32;20094;-68
2022/09/27 04:05:41;;;;;;;49.90;21.42;;;;;;;11.78;100.00;97332.78;4398459;32;20079;-68
2022/09/27 04:08:09;;;;;;;47.30;21.65;;;;;;;11.83;100.00;97338.09;4395339;32;20038;-69
2022/09/27 04:10:37;;;;;;;60.25;22.92;;;;;;;11.77;100.00;97367.03;4393654;32;20031;-72
2022/09/27 04:13:04;;;;;;;40.53;19.85;;;;;;;11.87;100.00;97357.16;4380134;32;20020;-69
2022/09/27 04:15:31;;;;;;;44.20;20.33;;;;;;;12.01;100.00;97298.66;4382700;32;20085;-69
2022/09/27 04:18:05;;;;;;;49.33;20.50;;;;;;;12.20;100.00;97341.69;4370931;32;20475;-69
2022/09/27 04:20:35;;;;;;;41.97;20.73;;;;;;;12.25;100.00;97333.50;4353016;32;20390;-69
2022/09/27 04:23:02;;;;;;;68.95;21.35;;;;;;;12.24;100.00;97342.72;4351811;32;20066;-70
2022/09/27 04:25:28;;;;;;;42.65;18.80;;;;;;;11.78;100.00;97313.94;4353012;32;20064;-68
2022/09/27 04:27:55;;;;;;;53.97;22.75;;;;;;;11.91;100.00;97307.72;4353413;32;20079;-69
2022/09/27 04:30:22;;;;;;;66.75;22.33;;;;;;;11.79;100.00;97337.06;4352405;32;20032;-68
2022/09/27 04:32:50;;;;;;;90.28;22.62;;;;;;;11.00;100.00;97273.28;4353072;32;20406;-72
2022/09/27 04:38:04;;;;;;;47.38;19.42;;;;;;;10.83;100.00;97366.19;4347929;32;20033;-69
2022/09/27 04:40:37;;;;;;;93.00;21.30;;;;;;;10.77;100.00;97361.97;4366269;32;20075;-72
2022/09/27 04:43:04;;;;;;;105.93;19.90;;;;;;;11.13;100.00;97361.41;4324436;32;20075;-68
2022/09/27 04:45:30;;;;;;;110.78;20.50;;;;;;;10.66;100.00;97307.47;4352463;32;20073;-68
2022/09/27 04:47:57;;;;;;;88.55;22.23;;;;;;;10.48;100.00;97282.16;4353188;33;20044;-68
2022/09/27 04:50:31;;;;;;;125.25;23.42;;;;;;;11.20;100.00;97364.53;4349161;33;20427;-68
2022/09/27 04:53:01;;;;;;;79.30;21.12;;;;;;;11.13;100.00;97355.22;4335713;33;20364;-69
2022/09/27 04:55:27;;;;;;;110.40;24.25;;;;;;;10.74;100.00;97308.69;4323721;33;20035;-68
2022/09/27 04:57:53;;;;;;;86.72;23.67;;;;;;;11.37;100.00;97357.78;4332326;33;20032;-69
2022/09/27 05:00:20;;;;;;;51.85;22.05;;;;;;;11.39;100.00;97312.47;4334074;32;21578;-69
2022/09/27 05:02:48;;;;;;;121.10;21.42;;;;;;;11.42;100.00;97341.53;4338149;33;20058;-69
2022/09/27 05:05:18;;;;;;;51.10;21.20;;;;;;;11.66;100.00;97337.88;4339301;33;20069;-69
2022/09/27 05:07:45;;;;;;;54.38;20.58;;;;;;;11.21;100.00;97301.44;4340860;33;20104;-69
2022/09/27 05:10:13;;;;;;;73.28;22.27;;;;;;;11.72;100.00;97334.78;4339006;33;20021;-68
2022/09/27 05:12:40;;;;;;;50.12;19.92;;;;;;;10.98;100.00;97350.88;4339801;33;20047;-72
2022/09/27 05:15:07;;;;;;;66.68;22.13;;;;;;;11.27;100.00;97354.16;4338857;33;20118;-69
2022/09/27 05:17:36;;;;;;;48.72;21.35;;;;;;;11.57;100.00;97362.81;4341053;33;20048;-68
2022/09/27 05:20:16;;;;;;;49.05;20.95;;;;;;;11.26;100.00;97314.88;4341154;32;20052;-69
2022/09/27 05:22:43;;;;;;;49.33;21.58;;;;;;;11.27;100.00;97311.06;4338754;33;20050;-70
2022/09/27 05:25:09;;;;;;;42.95;17.15;;;;;;;11.54;100.00;97347.25;4339908;33;20073;-70
2022/09/27 05:27:36;;;;;;;42.28;17.65;;;;;;;11.21;100.00;97333.78;4352987;32;20054;-69
2022/09/27 05:30:03;;;;;;;34.63;17.85;;;;;;;11.18;100.00;97347.06;4352699;32;20077;-72
2022/09/27 05:32:30;;;;;;;67.85;18.85;;;;;;;10.61;100.00;97271.75;4355315;32;20044;-70
2022/09/27 05:34:59;;;;;;;47.22;19.87;;;;;;;11.27;100.00;97354.16;4353244;32;20342;-70
2022/09/27 05:37:26;;;;;;;55.45;17.50;;;;;;;11.16;100.00;97352.72;4341656;32;20813;-68
2022/09/27 05:39:52;;;;;;;52.70;20.52;;;;;;;11.50;100.00;97356.22;4340337;33;20032;-69
2022/09/27 05:42:18;;;;;;;43.65;19.30;;;;;;;11.72;100.00;97347.47;4333510;32;20044;-72
2022/09/27 05:44:46;;;;;;;51.58;19.30;;;;;;;11.49;100.00;97354.59;4338585;33;20109;-75
2022/09/27 05:47:14;;;;;;;34.83;18.67;;;;;;;11.63;100.00;97353.56;4339099;33;20425;-71
2022/09/27 05:49:41;;;;;;;50.42;19.05;;;;;;;11.78;100.00;97349.75;4378040;32;20065;-72
2022/09/27 05:52:09;;;;;;;50.85;18.73;;;;;;;11.43;100.00;97305.41;4383926;32;20065;-72
2022/09/27 05:54:35;;;;;;;58.15;19.50;;;;;;;11.60;100.00;97294.84;4383215;32;20042;-72
2022/09/27 05:57:02;;;;;;;47.92;19.20;;;;;;;11.35;100.00;97279.16;4381468;32;20082;-73
2022/09/27 05:59:29;;;;;;;43.95;19.50;;;;;;;11.43;100.00;97356.59;4382897;32;20051;-74
2022/09/27 06:01:57;;;;;;;43.50;19.60;;;;;;;11.82;100.00;97353.47;4397821;32;20068;-71
2022/09/27 06:04:28;;;;;;;59.80;19.12;;;;;;;11.49;100.00;97293.44;4383044;32;20072;-74
2022/09/27 06:06:57;;;;;;;45.78;18.77;;;;;;;11.67;100.00;97302.53;4381148;32;20068;-75
2022/09/27 06:09:25;;;;;;;44.13;19.02;;;;;;;11.42;100.00;97266.88;4381141;32;20047;-75
2022/09/27 06:11:52;;;;;;;37.75;18.45;;;;;;;11.69;100.00;97311.09;4383463;32;20061;-72
2022/09/27 06:14:19;;;;;;;41.00;20.00;;;;;;;11.84;100.00;97301.94;4383866;32;20053;-71
2022/09/27 06:16:47;;;;;;;39.13;17.62;;;;;;;11.92;100.00;97295.09;4383565;32;20046;-69
2022/09/27 06:19:13;;;;;;;37.88;19.48;;;;;;;12.37;100.00;97324.09;4393773;32;20061;-70
2022/09/27 06:21:40;;;;;;;42.08;18.00;;;;;;;12.14;100.00;97305.13;4384906;32;20070;-69
2022/09/27 06:24:07;;;;;;;45.33;17.95;;;;;;;12.17;100.00;97280.25;4385147;32;20056;-74
2022/09/27 06:26:34;;;;;;;38.42;18.62;;;;;;;12.13;100.00;97276.56;4385163;32;20454;-72
2022/09/27 06:29:00;;;;;;;40.03;15.52;;;;;;;12.52;100.00;97321.06;4382573;32;20031;-71
2022/09/27 06:31:27;;;;;;;31.52;15.90;;;;;;;12.33;100.00;97286.09;4384360;32;20069;-72
2022/09/27 06:33:56;;;;;;;26.40;14.18;;;;;;;12.34;100.00;97312.78;4372223;32;20448;-71
2022/09/27 06:36:23;;;;;;;25.30;13.52;;;;;;;12.62;100.00;97320.84;4391560;32;20026;-70
2022/09/27 06:38:50;;;;;;;26.30;14.52;;;;;;;12.52;100.00;97319.16;4365824;32;20057;-71
2022/09/27 06:41:16;;;;;;;32.65;16.62;;;;;;;12.15;100.00;97274.38;4351551;32;20039;-71
2022/09/27 06:43:44;;;;;;;33.42;17.42;;;;;;;11.94;100.00;97280.19;4353966;32;20111;-72
2022/09/27 06:46:12;;;;;;;34.53;16.20;;;;;;;11.65;100.00;97288.56;4352358;32;20104;-71
2022/09/27 06:48:46;;;;;;;33.53;17.20;;;;;;;12.62;100.00;97323.53;4352822;32;20406;-72
2022/09/27 06:51:14;;;;;;;29.85;15.55;;;;;;;12.44;100.00;97313.69;4338509;32;20054;-76
2022/09/27 06:53:52;;;;;;;32.78;16.85;;;;;;;12.64;100.00;97334.81;4339544;33;20996;-70
2022/09/27 06:56:35;;;;;;;36.58;16.40;;;;;;;12.43;100.00;97285.91;4339300;32;20058;-71
2022/09/27 07:02:19;;;;;;;38.03;18.30;;;;;;;12.50;100.00;97280.06;4335947;33;20218;-72
2022/09/27 07:04:45;;;;;;;35.72;17.23;;;;;;;12.16;100.00;97224.72;4339727;33;20060;-71
2022/09/27 07:07:14;;;;;;;32.17;18.85;;;;;;;12.89;100.00;97324.53;4351407;32;20061;-71
2022/09/27 07:09:41;;;;;;;33.50;17.87;;;;;;;12.56;100.00;97284.25;4359942;32;20028;-71
2022/09/27 07:12:07;;;;;;;31.77;17.10;;;;;;;12.69;100.00;97332.00;4371395;32;20027;-71
2022/09/27 07:14:34;;;;;;;30.45;18.83;;;;;;;11.97;100.00;97290.38;4364733;32;20020;-73
2022/09/27 07:17:02;;;;;;;29.52;16.62;;;;;;;11.98;100.00;97256.09;4368920;32;20116;-72
2022/09/27 07:19:34;;;;;;;30.37;14.95;;;;;;;12.26;100.00;97329.69;4380988;32;20028;-71
2022/09/27 07:22:08;;;;;;;29.42;16.15;;;;;;;12.69;100.00;97326.59;4368922;32;20043;-71
2022/09/27 07:24:34;;;;;;;28.98;17.05;;;;;;;13.06;100.00;97330.06;4367273;32;20032;-72
2022/09/27 07:27:01;;;;;;;26.20;16.50;;;;;;;12.29;100.00;97296.72;4381355;32;20489;-71
2022/09/27 07:29:28;;;;;;;32.13;15.23;;;;;;;12.07;100.00;97293.97;4383322;32;20077;-72
2022/09/27 07:31:55;;;;;;;22.73;13.70;;;;;;;12.44;100.00;97340.66;4383673;32;20051;-70
2022/09/27 07:34:22;;;;;;;27.33;15.20;;;;;;;12.11;100.00;97290.38;4383604;32;20477;-75
2022/09/27 07:36:48;;;;;;;27.48;15.60;;;;;;;12.46;100.00;97289.88;4381980;32;20036;-72
2022/09/27 07:39:15;;;;;;;24.37;13.32;;;;;;;13.34;100.00;97332.66;4399738;32;20408;-70
2022/09/27 07:41:45;;;;;;;21.73;13.02;;;;;;;13.30;100.00;97334.34;4390979;32;20042;-70
2022/09/27 07:44:15;;;;;;;24.60;12.13;;;;;;;12.81;100.00;97314.47;4397104;32;20413;-72
2022/09/27 07:46:42;;;;;;;19.62;12.02;;;;;;;12.98;100.00;97317.28;4390813;32;20116;-71
2022/09/27 07:49:08;;;;;;;21.52;13.48;;;;;;;13.27;100.00;97330.38;4415964;32;20859;-71
2022/09/27 07:51:35;;;;;;;22.42;13.75;;;;;;;12.72;100.00;97285.50;4423116;32;20064;-71
2022/09/27 07:54:02;;;;;;;28.38;14.82;;;;;;;12.32;100.00;97293.41;4398757;32;20065;-72
2022/09/27 07:56:29;;;;;;;21.67;14.38;;;;;;;13.02;100.00;97321.00;4397519;32;20038;-75
2022/09/27 07:58:56;;;;;;;22.55;15.00;;;;;;;12.89;100.00;97292.12;4390867;32;20420;-70
2022/09/27 08:01:22;;;;;;;27.27;16.12;;;;;;;12.53;100.00;97295.66;4392929;32;20415;-70
2022/09/27 08:03:49;;;;;;;24.40;15.07;;;;;;;12.46;100.00;97289.88;4397105;32;20031;-71
2022/09/27 08:06:16;;;;;;;37.95;15.38;;;;;;;12.45;100.00;97245.09;4401483;32;20042;-71
2022/09/27 08:08:44;;;;;;;29.30;15.40;;;;;;;12.83;100.00;97325.78;4398275;32;20448;-70
2022/09/27 08:11:17;;;;;;;30.12;16.62;;;;;;;12.83;100.00;97320.38;4399247;32;20109;-71
2022/09/27 08:13:45;;;;;;;28.33;15.82;;;;;;;13.02;100.00;97318.28;4393449;32;20097;-71
2022/09/27 08:16:13;;;;;;;32.00;16.62;;;;;;;13.56;100.00;97325.63;4393588;32;20435;-71
2022/09/27 08:18:42;;;;;;;33.45;17.30;;;;;;;13.26;100.00;97273.94;4397025;32;20111;-75
2022/09/27 08:21:13;;;;;;;28.38;17.00;;;;;;;13.61;100.00;97284.94;4396872;32;20076;-71
2022/09/27 08:23:41;;;;;;;25.23;17.42;;;;;;;13.62;100.00;97308.16;4395930;32;20031;-71
2022/09/27 08:26:08;;;;;;;30.55;19.17;;;;;;;12.91;100.00;97319.63;4395761;32;20052;-72
2022/09/27 08:28:35;;;;;;;27.27;17.85;;;;;;;12.72;100.00;97282.78;4364698;32;20054;-73
2022/09/27 08:31:05;;;;;;;28.75;17.20;;;;;;;12.77;100.00;97294.59;4365590;32;20057;-71
2022/09/27 08:33:33;;;;;;;36.55;19.23;;;;;;;13.61;100.00;97339.03;4367291;32;20062;-72
2022/09/27 08:36:02;;;;;;;29.90;18.50;;;;;;;13.75;100.00;97291.03;4373301;32;20077;-69
2022/09/27 08:38:29;;;;;;;30.50;17.70;;;;;;;13.32;100.00;97301.59;4365519;32;20101;-72
2022/09/27 08:41:20;;;;;;;27.83;17.52;;;;;;;13.99;100.00;97297.94;4356732;32;20036;-68
2022/09/27 08:44:16;;;;;;;24.08;17.25;;;;;;;14.65;100.00;97343.16;4385218;32;20122;-69
2022/09/27 08:46:59;;;;;;;30.27;18.10;;;;;;;14.35;100.00;97334.81;4382164;32;20065;-72
2022/09/27 08:49:37;;;;;;;29.90;17.77;;;;;;;13.80;100.00;97342.28;4381713;32;20034;-72
2022/09/27 08:52:11;;;;;;;28.50;18.62;;;;;;;14.20;100.00;97290.03;4351644;33;20028;-70
2022/09/27 08:54:39;;;;;;;24.60;17.15;;;;;;;13.41;100.00;97287.06;4352990;33;20446;-72
2022/09/27 08:57:12;;;;;;;32.88;16.80;;;;;;;14.07;100.00;97313.41;4352733;32;20438;-71
2022/09/27 08:59:52;;;;;;;34.85;17.05;;;;;;;14.20;100.00;97290.03;4365537;32;20047;-74
2022/09/27 09:02:23;;;;;;;26.67;19.17;;;;;;;14.48;100.00;97333.84;4381401;32;20031;-71
2022/09/27 09:04:57;;;;;;;31.87;19.07;;;;;;;13.55;100.00;97286.97;4367223;32;20055;-70
2022/09/27 09:07:32;;;;;;;30.65;18.45;;;;;;;13.84;100.00;97280.22;4366630;32;20438;-75
2022/09/27 09:13:25;;;;;;;33.05;19.98;;;;;;;14.28;100.00;97320.91;4347756;32;20067;-71
2022/09/27 09:16:01;;;;;;;37.80;21.20;;;;;;;14.57;100.00;97295.16;4356897;32;20039;-72
2022/09/27 09:18:33;;;;;;;38.27;21.37;;;;;;;14.71;100.00;97303.97;4366158;32;20064;-73
2022/09/27 09:21:46;;;;;;;33.17;21.08;;;;;;;14.89;100.00;97304.75;4367522;32;20070;-70
2022/09/27 09:24:18;;;;;;;;;;;;;;;14.54;100.00;97310.16;4343724;32;20043;-70
2022/09/27 09:26:51;;;;;;;;;;;;;;;14.73;100.00;97301.75;4367464;32;19938;-71
2022/09/27 09:29:38;;;;;;;24.48;17.48;;;;;;;15.06;100.00;97293.91;4367573;32;19934;-71
2022/09/27 09:32:22;;;;;;;28.00;17.80;;;;;;;15.09;100.00;97287.03;4366453;32;20047;-71
2022/09/27 09:34:55;;;;;;;35.20;18.20;;;;;;;14.74;100.00;97243.72;4366140;32;20093;-71
2022/09/27 09:37:37;;;;;;;26.85;17.37;;;;;;;14.48;100.00;97209.31;4365789;32;20153;-71
2022/09/27 09:40:13;;;;;;;27.27;16.12;;;;;;;14.49;100.00;97300.25;4397337;32;20471;-70
2022/09/27 09:42:49;;;;;;;30.67;16.55;;;;;;;14.51;100.00;97257.41;4428882;32;20337;-71
2022/09/27 09:45:29;;;;;;;44.30;19.77;;;;;;;14.76;100.00;97274.00;4428173;32;20071;-71
2022/09/27 09:48:09;;;;;;;28.45;18.65;;;;;;;14.05;100.00;97237.16;4430818;32;20060;-70
2022/09/27 09:50:52;;;;;;;29.63;18.20;;;;;;;14.06;100.00;97273.94;4399174;32;20067;-74
2022/09/27 09:53:26;;;;;;;33.25;18.48;;;;;;;14.17;100.00;97215.69;4402719;32;20064;-70
2022/09/27 09:56:06;;;;;;;29.02;17.48;;;;;;;14.36;100.00;97244.34;4402345;32;20042;-71
2022/09/27 09:58:48;;;;;;;28.02;17.95;;;;;;;14.12;100.00;97245.59;4401883;32;20046;-67
2022/09/27 10:01:26;;;;;;;25.08;17.75;;;;;;;14.32;100.00;97265.84;4401710;32;20039;-70
2022/09/27 10:03:55;;;;;;;29.08;17.52;;;;;;;14.16;100.00;97268.19;4400609;32;20038;-71
2022/09/27 10:06:24;;;;;;;24.15;16.60;;;;;;;14.62;100.00;97279.59;4402189;32;20538;-71
2022/09/27 10:08:53;;;;;;;23.85;16.50;;;;;;;15.03;100.00;97228.69;4402442;32;20035;-71
2022/09/27 10:11:30;;;;;;;26.58;18.42;;;;;;;14.68;100.00;97256.66;4401667;32;20377;-70
2022/09/27 10:13:56;;;;;;;26.02;16.10;;;;;;;14.14;100.00;97223.62;4398314;32;20084;-74
2022/09/27 10:16:28;;;;;;;27.02;16.90;;;;;;;15.01;100.00;97203.81;4399739;32;20764;-69
2022/09/27 10:19:02;;;;;;;23.95;16.62;;;;;;;15.36;100.00;97257.94;4400079;32;20043;-69
2022/09/27 10:21:29;;;;;;;21.90;13.97;;;;;;;15.19;100.00;97210.81;4400012;32;20081;-69
2022/09/27 10:24:16;;;;;;;25.85;14.55;;;;;;;15.67;100.00;97216.16;4397904;32;20032;-76
2022/09/27 10:26:50;;;;;;;26.23;13.98;;;;;;;16.36;100.00;97249.47;4400080;32;20057;-71
2022/09/27 10:29:23;;;;;;;20.88;13.55;;;;;;;16.42;100.00;97237.25;4400195;32;20035;-72
2022/09/27 10:31:51;;;;;;;28.33;14.63;;;;;;;16.47;100.00;97204.50;4397289;32;20050;-71
2022/09/27 10:34:39;;;;;;;24.70;12.65;;;;;;;16.42;100.00;97246.22;4397329;32;20338;-71
2022/09/27 10:37:18;;;;;;;22.40;12.90;;;;;;;16.58;100.00;97237.44;4365178;32;20067;-76
2022/09/27 10:39:50;;;;;;;20.77;11.82;;;;;;;16.87;100.00;97225.72;4368092;32;20456;-71
2022/09/27 10:42:36;;;;;;;18.12;12.15;;;;;;;16.86;100.00;97159.72;4369709;32;20051;-70
2022/09/27 10:45:28;;;;;;;18.87;11.32;;;;;;;16.80;100.00;97225.44;4370969;32;20032;-71
2022/09/27 10:48:01;;;;;;;14.55;9.82;;;;;;;16.28;100.00;97222.03;4335372;33;20453;-71
2022/09/27 10:50:32;;;;;;;13.65;11.43;;;;;;;15.78;100.00;97141.47;4353109;32;20040;-72
2022/09/27 10:53:25;;;;;;;18.05;10.13;;;;;;;16.20;100.00;97182.19;4354704;32;21006;-70
2022/09/27 10:55:55;;;;;;;15.38;10.18;;;;;;;16.97;100.00;97203.53;4352173;32;20053;-73
2022/09/27 10:58:32;;;;;;;14.45;9.95;;;;;;;17.21;100.00;97210.16;4324723;33;20060;-71
2022/09/27 11:01:03;;;;;;;19.52;10.85;;;;;;;17.93;100.00;97216.00;4324546;33;20122;-70
2022/09/27 11:03:57;;;;;;;11.43;9.02;;;;;;;18.52;100.00;97198.28;4323992;33;20066;-71
2022/09/27 11:06:23;;;;;;;13.10;8.73;;;;;;;18.36;100.00;97161.19;4308559;33;20040;-71
2022/09/27 11:08:54;;;;;;;14.30;9.20;;;;;;;18.61;100.00;97194.59;4334103;33;20068;-71
2022/09/27 11:11:27;;;;;;;15.82;8.55;;;;;;;18.45;100.00;97192.59;4336491;33;20343;-71
2022/09/27 11:14:23;;;;;;;11.85;8.55;;;;;;;18.72;100.00;97154.00;4339365;33;20036;-73
2022/09/27 11:17:03;;;;;;;12.25;7.47;;;;;;;17.94;100.00;97189.56;4336444;33;20036;-74
2022/09/27 11:19:51;;;;;;;8.87;6.13;;;;;;;17.66;100.00;97141.25;4349534;32;20040;-68
2022/09/27 11:22:35;;;;;;;6.80;5.30;;;;;;;17.72;100.00;97183.44;4352390;32;20044;-75
2022/09/27 11:25:29;;;;;;;7.62;5.70;;;;;;;17.13;100.00;97145.81;4342516;32;20294;-71
2022/09/27 11:28:08;;;;;;;6.65;5.78;;;;;;;17.94;100.00;97174.00;4338903;32;20121;-70
2022/09/27 11:30:40;;;;;;;;;;;;;;;17.82;100.00;97181.37;4353916;32;20047;-69
2022/09/27 11:33:30;;;;;;;6.70;5.85;;;;;;;17.68;100.00;97170.84;4354102;32;19941;-70
2022/09/27 11:36:12;;;;;;;14.68;7.97;;;;;;;17.25;100.00;97138.44;4353069;32;20079;-71
2022/09/27 11:38:57;;;;;;;;;;;;;;;17.12;100.00;97176.84;4351268;32;20054;-72
2022/09/27 11:41:49;;;;;;;9.57;7.47;;;;;;;16.84;100.00;97180.94;4353440;32;20975;-69
2022/09/27 11:44:43;;;;;;;7.75;6.15;;;;;;;17.54;100.00;97173.94;4352717;32;20028;-71